createdAt,value
2018-03-15T00:00:52.424Z,994.07
2018-03-15T00:01:52.399Z,994.04
2018-03-15T00:02:52.362Z,993.99
2018-03-15T00:03:52.331Z,994.02
2018-03-15T00:04:52.299Z,994.02
2018-03-15T00:05:52.270Z,994.02
2018-03-15T00:06:52.237Z,994.04
2018-03-15T00:07:52.211Z,993.98
2018-03-15T00:08:52.175Z,994
2018-03-15T00:09:52.144Z,994
2018-03-15T00:10:52.112Z,993.99
2018-03-15T00:11:52.098Z,994
2018-03-15T00:12:52.050Z,993.96
2018-03-15T00:13:52.018Z,993.94
2018-03-15T00:14:51.987Z,993.93
2018-03-15T00:15:52.198Z,993.91
2018-03-15T00:16:51.924Z,993.87
2018-03-15T00:17:51.892Z,993.85
2018-03-15T00:18:51.893Z,993.83
2018-03-15T00:19:51.829Z,993.83
2018-03-15T00:20:51.798Z,993.8
2018-03-15T00:21:51.765Z,993.78
2018-03-15T00:22:51.735Z,993.75
2018-03-15T00:23:51.703Z,993.75
2018-03-15T00:24:51.673Z,993.74
2018-03-15T00:25:51.641Z,993.69
2018-03-15T00:26:51.609Z,993.71
2018-03-15T00:27:51.578Z,993.71
2018-03-15T00:28:51.550Z,993.73
2018-03-15T00:29:51.516Z,993.76
2018-03-15T00:30:51.484Z,993.74
2018-03-15T00:31:51.453Z,993.68
2018-03-15T00:32:51.443Z,993.7
2018-03-15T00:33:51.389Z,993.66
2018-03-15T00:34:51.358Z,993.61
2018-03-15T00:35:51.330Z,993.61
2018-03-15T00:36:51.295Z,993.6
2018-03-15T00:37:51.265Z,993.61
2018-03-15T00:38:51.231Z,993.57
2018-03-15T00:39:51.200Z,993.55
2018-03-15T00:40:51.168Z,993.47
2018-03-15T00:41:51.136Z,993.51
2018-03-15T00:42:51.109Z,993.45
2018-03-15T00:43:51.080Z,993.5
2018-03-15T00:44:51.042Z,993.47
2018-03-15T00:45:51.012Z,993.39
2018-03-15T00:46:50.980Z,993.41
2018-03-15T00:47:50.949Z,993.33
2018-03-15T00:48:50.917Z,993.41
2018-03-15T00:49:50.885Z,993.39
2018-03-15T00:50:50.854Z,993.4
2018-03-15T00:51:50.821Z,993.39
2018-03-15T00:52:50.823Z,993.4
2018-03-15T00:53:50.760Z,993.39
2018-03-15T00:54:50.727Z,993.42
2018-03-15T00:55:50.696Z,993.36
2018-03-15T00:56:50.665Z,993.37
2018-03-15T00:57:50.633Z,993.38
2018-03-15T00:58:50.602Z,993.36
2018-03-15T00:59:50.568Z,993.38
2018-03-15T01:00:50.542Z,993.34
2018-03-15T01:01:50.507Z,993.31
2018-03-15T01:02:50.478Z,993.31
2018-03-15T01:03:50.499Z,993.25
2018-03-15T01:04:50.414Z,993.25
2018-03-15T01:05:50.381Z,993.25
2018-03-15T01:06:50.350Z,993.22
2018-03-15T01:07:50.318Z,993.2
2018-03-15T01:08:50.288Z,993.17
2018-03-15T01:09:50.257Z,993.19
2018-03-15T01:10:50.223Z,993.16
2018-03-15T01:11:50.193Z,993.18
2018-03-15T01:12:50.162Z,993.15
2018-03-15T01:13:50.129Z,993.17
2018-03-15T01:14:50.097Z,993.11
2018-03-15T01:15:50.067Z,993.11
2018-03-15T01:16:50.039Z,993.09
2018-03-15T01:17:50.003Z,993.09
2018-03-15T01:18:49.972Z,993.08
2018-03-15T01:19:49.940Z,993.03
2018-03-15T01:20:49.908Z,993.01
2018-03-15T01:21:49.877Z,993.06
2018-03-15T01:22:49.846Z,993.03
2018-03-15T01:23:49.815Z,993.03
2018-03-15T01:24:49.781Z,993.01
2018-03-15T01:25:49.750Z,992.98
2018-03-15T01:26:49.718Z,992.99
2018-03-15T01:27:49.688Z,992.97
2018-03-15T01:28:49.655Z,992.92
2018-03-15T01:29:49.633Z,992.97
2018-03-15T01:30:49.593Z,992.93
2018-03-15T01:31:49.561Z,992.91
2018-03-15T01:32:49.529Z,992.93
2018-03-15T01:33:49.498Z,992.92
2018-03-15T01:34:49.466Z,992.88
2018-03-15T01:35:49.434Z,992.89
2018-03-15T01:36:49.402Z,992.86
2018-03-15T01:37:49.370Z,992.87
2018-03-15T01:38:49.340Z,992.84
2018-03-15T01:39:49.307Z,992.8
2018-03-15T01:40:49.276Z,992.79
2018-03-15T01:41:49.243Z,992.77
2018-03-15T01:42:49.212Z,992.75
2018-03-15T01:43:49.179Z,992.71
2018-03-15T01:44:49.149Z,992.72
2018-03-15T01:45:49.117Z,992.66
2018-03-15T01:46:49.085Z,992.64
2018-03-15T01:47:49.053Z,992.63
2018-03-15T01:48:49.023Z,992.66
2018-03-15T01:49:48.992Z,992.6
2018-03-15T01:50:48.959Z,992.64
2018-03-15T01:51:48.926Z,992.59
2018-03-15T01:52:48.896Z,992.57
2018-03-15T01:53:48.864Z,992.56
2018-03-15T01:54:48.833Z,992.59
2018-03-15T01:55:48.801Z,992.55
2018-03-15T01:56:48.769Z,992.54
2018-03-15T01:57:48.736Z,992.5
2018-03-15T01:58:48.707Z,992.51
2018-03-15T01:59:48.673Z,992.52
2018-03-15T02:00:48.644Z,992.48
2018-03-15T02:01:48.609Z,992.53
2018-03-15T02:02:48.579Z,992.5
2018-03-15T02:03:48.547Z,992.48
2018-03-15T02:04:48.516Z,992.47
2018-03-15T02:05:48.482Z,992.47
2018-03-15T02:06:48.451Z,992.47
2018-03-15T02:07:48.419Z,992.48
2018-03-15T02:08:48.392Z,992.46
2018-03-15T02:09:48.355Z,992.42
2018-03-15T02:10:48.331Z,992.39
2018-03-15T02:11:48.460Z,992.39
2018-03-15T02:12:48.261Z,992.34
2018-03-15T02:13:48.229Z,992.35
2018-03-15T02:14:48.201Z,992.31
2018-03-15T02:15:48.165Z,992.28
2018-03-15T02:16:48.133Z,992.28
2018-03-15T02:17:48.101Z,992.29
2018-03-15T02:18:48.070Z,992.26
2018-03-15T02:19:48.036Z,992.28
2018-03-15T02:20:48.006Z,992.28
2018-03-15T02:21:47.975Z,992.29
2018-03-15T02:22:47.943Z,992.26
2018-03-15T02:23:47.908Z,992.24
2018-03-15T02:24:47.878Z,992.27
2018-03-15T02:25:47.847Z,992.25
2018-03-15T02:26:47.816Z,992.29
2018-03-15T02:27:47.783Z,992.25
2018-03-15T02:28:47.751Z,992.24
2018-03-15T02:29:47.720Z,992.23
2018-03-15T02:30:47.687Z,992.25
2018-03-15T02:31:47.656Z,992.26
2018-03-15T02:32:47.624Z,992.25
2018-03-15T02:33:47.594Z,992.2
2018-03-15T02:34:47.560Z,992.2
2018-03-15T02:35:47.528Z,992.21
2018-03-15T02:36:47.498Z,992.21
2018-03-15T02:37:47.465Z,992.2
2018-03-15T02:38:47.434Z,992.17
2018-03-15T02:39:47.402Z,992.15
2018-03-15T02:40:47.371Z,992.15
2018-03-15T02:41:47.338Z,992.12
2018-03-15T02:42:47.305Z,992.04
2018-03-15T02:43:47.274Z,992.09
2018-03-15T02:44:47.242Z,992.11
2018-03-15T02:45:47.211Z,992.06
2018-03-15T02:46:47.178Z,992.03
2018-03-15T02:47:47.148Z,992.09
2018-03-15T02:48:47.114Z,992.06
2018-03-15T02:49:47.080Z,992.06
2018-03-15T02:50:47.050Z,992.04
2018-03-15T02:51:47.019Z,992.05
2018-03-15T02:52:46.986Z,991.98
2018-03-15T02:53:46.954Z,992
2018-03-15T02:54:46.923Z,991.99
2018-03-15T02:55:46.889Z,991.95
2018-03-15T02:56:46.858Z,991.92
2018-03-15T02:57:46.826Z,991.9
2018-03-15T02:58:46.799Z,991.88
2018-03-15T02:59:46.762Z,991.9
2018-03-15T03:00:46.731Z,991.86
2018-03-15T03:01:46.751Z,991.91
2018-03-15T03:02:46.716Z,991.88
2018-03-15T03:03:46.635Z,991.92
2018-03-15T03:04:46.603Z,991.95
2018-03-15T03:05:46.571Z,991.96
2018-03-15T03:06:46.540Z,991.94
2018-03-15T03:07:46.515Z,991.91
2018-03-15T03:08:46.473Z,991.93
2018-03-15T03:09:46.442Z,991.91
2018-03-15T03:10:46.409Z,991.93
2018-03-15T03:11:46.377Z,991.92
2018-03-15T03:12:46.345Z,991.86
2018-03-15T03:13:46.313Z,991.88
2018-03-15T03:14:46.281Z,991.85
2018-03-15T03:15:46.251Z,991.86
2018-03-15T03:16:46.217Z,991.89
2018-03-15T03:17:46.188Z,991.86
2018-03-15T03:18:46.152Z,991.86
2018-03-15T03:19:46.121Z,991.83
2018-03-15T03:20:46.089Z,991.84
2018-03-15T03:21:46.056Z,991.85
2018-03-15T03:22:46.026Z,991.8
2018-03-15T03:23:46.002Z,991.76
2018-03-15T03:24:45.959Z,991.76
2018-03-15T03:25:45.927Z,991.72
2018-03-15T03:26:45.897Z,991.74
2018-03-15T03:27:45.863Z,991.71
2018-03-15T03:28:45.832Z,991.7
2018-03-15T03:29:45.799Z,991.71
2018-03-15T03:30:45.768Z,991.7
2018-03-15T03:31:45.736Z,991.77
2018-03-15T03:32:45.703Z,991.74
2018-03-15T03:33:45.674Z,991.68
2018-03-15T03:34:45.642Z,991.69
2018-03-15T03:35:45.606Z,991.66
2018-03-15T03:36:45.573Z,991.64
2018-03-15T03:37:45.542Z,991.6
2018-03-15T03:38:45.511Z,991.61
2018-03-15T03:39:45.478Z,991.59
2018-03-15T03:40:45.475Z,991.59
2018-03-15T03:41:45.412Z,991.55
2018-03-15T03:42:45.381Z,991.55
2018-03-15T03:43:45.348Z,991.51
2018-03-15T03:44:45.316Z,991.48
2018-03-15T03:45:45.284Z,991.47
2018-03-15T03:46:45.252Z,991.5
2018-03-15T03:47:45.225Z,991.47
2018-03-15T03:48:45.188Z,991.45
2018-03-15T03:49:45.155Z,991.46
2018-03-15T03:50:45.124Z,991.46
2018-03-15T03:51:45.092Z,991.52
2018-03-15T03:52:45.059Z,991.55
2018-03-15T03:53:45.027Z,991.57
2018-03-15T03:54:44.994Z,991.56
2018-03-15T03:55:44.961Z,991.54
2018-03-15T03:56:44.930Z,991.53
2018-03-15T03:57:44.897Z,991.56
2018-03-15T03:58:44.865Z,991.55
2018-03-15T03:59:44.832Z,991.58
2018-03-15T04:00:44.801Z,991.57
2018-03-15T04:01:44.783Z,991.59
2018-03-15T04:02:44.735Z,991.55
2018-03-15T04:03:44.704Z,991.57
2018-03-15T04:04:44.672Z,991.54
2018-03-15T04:05:44.639Z,991.57
2018-03-15T04:06:44.607Z,991.56
2018-03-15T04:07:44.576Z,991.56
2018-03-15T04:08:44.543Z,991.54
2018-03-15T04:09:44.510Z,991.52
2018-03-15T04:10:44.478Z,991.48
2018-03-15T04:11:44.447Z,991.49
2018-03-15T04:12:44.412Z,991.49
2018-03-15T04:13:44.380Z,991.43
2018-03-15T04:14:44.352Z,991.42
2018-03-15T04:15:44.362Z,991.4
2018-03-15T04:16:44.284Z,991.41
2018-03-15T04:17:44.252Z,991.36
2018-03-15T04:18:44.221Z,991.28
2018-03-15T04:19:44.187Z,991.28
2018-03-15T04:20:44.155Z,991.28
2018-03-15T04:21:44.123Z,991.26
2018-03-15T04:22:44.094Z,991.22
2018-03-15T04:23:44.060Z,991.23
2018-03-15T04:24:44.025Z,991.25
2018-03-15T04:25:43.994Z,991.25
2018-03-15T04:26:43.961Z,991.23
2018-03-15T04:27:43.928Z,991.18
2018-03-15T04:28:43.901Z,991.21
2018-03-15T04:29:43.865Z,991.22
2018-03-15T04:30:43.833Z,991.23
2018-03-15T04:31:43.799Z,991.24
2018-03-15T04:32:43.767Z,991.24
2018-03-15T04:33:43.736Z,991.23
2018-03-15T04:34:43.703Z,991.21
2018-03-15T04:35:43.671Z,991.26
2018-03-15T04:36:43.639Z,991.18
2018-03-15T04:37:43.606Z,991.14
2018-03-15T04:38:43.574Z,991.1
2018-03-15T04:39:43.542Z,991.04
2018-03-15T04:40:43.509Z,991.06
2018-03-15T04:41:43.477Z,991.09
2018-03-15T04:42:43.449Z,991.04
2018-03-15T04:43:43.413Z,991.05
2018-03-15T04:44:43.384Z,991.04
2018-03-15T04:45:43.349Z,991.02
2018-03-15T04:46:43.315Z,990.98
2018-03-15T04:47:43.283Z,991
2018-03-15T04:48:43.251Z,991.02
2018-03-15T04:49:43.219Z,991.01
2018-03-15T04:50:43.187Z,990.95
2018-03-15T04:51:43.155Z,991.02
2018-03-15T04:52:43.124Z,990.99
2018-03-15T04:53:43.089Z,991.01
2018-03-15T04:54:43.058Z,990.97
2018-03-15T04:55:43.026Z,990.97
2018-03-15T04:56:42.993Z,990.94
2018-03-15T04:57:42.960Z,990.91
2018-03-15T04:58:42.932Z,990.88
2018-03-15T04:59:42.898Z,990.89
2018-03-15T05:00:42.869Z,990.89
2018-03-15T05:01:42.832Z,990.88
2018-03-15T05:02:42.799Z,990.87
2018-03-15T05:03:42.768Z,990.78
2018-03-15T05:04:42.734Z,990.78
2018-03-15T05:05:42.720Z,990.71
2018-03-15T05:06:42.670Z,990.71
2018-03-15T05:07:42.638Z,990.68
2018-03-15T05:08:42.606Z,990.63
2018-03-15T05:09:42.577Z,990.66
2018-03-15T05:10:42.543Z,990.58
2018-03-15T05:11:42.510Z,990.56
2018-03-15T05:12:42.491Z,990.59
2018-03-15T05:13:42.444Z,990.54
2018-03-15T05:14:42.414Z,990.55
2018-03-15T05:15:42.380Z,990.5
2018-03-15T05:16:42.348Z,990.47
2018-03-15T05:17:42.315Z,990.47
2018-03-15T05:18:42.283Z,990.44
2018-03-15T05:19:42.251Z,990.44
2018-03-15T05:20:42.217Z,990.43
2018-03-15T05:21:42.186Z,990.39
2018-03-15T05:22:42.153Z,990.37
2018-03-15T05:23:42.121Z,990.33
2018-03-15T05:24:42.089Z,990.29
2018-03-15T05:25:42.057Z,990.29
2018-03-15T05:26:42.024Z,990.26
2018-03-15T05:27:41.992Z,990.26
2018-03-15T05:28:41.960Z,990.2
2018-03-15T05:29:41.926Z,990.18
2018-03-15T05:30:41.894Z,990.19
2018-03-15T05:31:41.863Z,990.18
2018-03-15T05:32:41.831Z,990.16
2018-03-15T05:33:41.799Z,990.11
2018-03-15T05:34:41.767Z,990.13
2018-03-15T05:35:41.735Z,990.13
2018-03-15T05:36:41.703Z,990.15
2018-03-15T05:37:41.668Z,990.17
2018-03-15T05:38:41.637Z,990.09
2018-03-15T05:39:41.606Z,990.11
2018-03-15T05:40:41.572Z,990.06
2018-03-15T05:41:41.546Z,990.07
2018-03-15T05:42:41.508Z,990.06
2018-03-15T05:43:41.476Z,990.05
2018-03-15T05:44:41.448Z,990.04
2018-03-15T05:45:41.412Z,990.06
2018-03-15T05:46:41.379Z,990.06
2018-03-15T05:47:41.349Z,990.04
2018-03-15T05:48:41.339Z,990.05
2018-03-15T05:49:41.284Z,989.99
2018-03-15T05:50:41.252Z,989.99
2018-03-15T05:51:41.220Z,990
2018-03-15T05:52:41.188Z,990.04
2018-03-15T05:53:41.155Z,989.99
2018-03-15T05:54:41.123Z,989.96
2018-03-15T05:55:41.091Z,989.99
2018-03-15T05:56:41.059Z,989.98
2018-03-15T05:57:41.027Z,989.97
2018-03-15T05:58:40.994Z,990.02
2018-03-15T05:59:40.962Z,989.99
2018-03-15T06:00:40.930Z,989.94
2018-03-15T06:01:40.897Z,989.97
2018-03-15T06:02:40.865Z,989.93
2018-03-15T06:03:40.834Z,989.87
2018-03-15T06:04:40.807Z,989.89
2018-03-15T06:05:40.770Z,989.92
2018-03-15T06:06:40.755Z,989.89
2018-03-15T06:07:40.705Z,989.87
2018-03-15T06:08:40.673Z,989.9
2018-03-15T06:09:40.639Z,989.88
2018-03-15T06:10:40.609Z,989.83
2018-03-15T06:11:40.917Z,989.77
2018-03-15T06:12:40.573Z,989.79
2018-03-15T06:13:40.780Z,989.75
2018-03-15T06:14:40.481Z,989.76
2018-03-15T06:15:40.449Z,989.79
2018-03-15T06:16:40.425Z,989.72
2018-03-15T06:17:40.383Z,989.72
2018-03-15T06:18:40.353Z,989.64
2018-03-15T06:19:40.321Z,989.68
2018-03-15T06:20:40.288Z,989.64
2018-03-15T06:21:40.257Z,989.66
2018-03-15T06:22:40.225Z,989.6
2018-03-15T06:23:40.195Z,989.65
2018-03-15T06:24:40.160Z,989.65
2018-03-15T06:25:40.130Z,989.63
2018-03-15T06:26:40.099Z,989.66
2018-03-15T06:27:40.065Z,989.69
2018-03-15T06:28:40.033Z,989.73
2018-03-15T06:29:40.003Z,989.68
2018-03-15T06:30:39.972Z,989.74
2018-03-15T06:31:39.951Z,989.76
2018-03-15T06:32:39.906Z,989.74
2018-03-15T06:33:39.881Z,989.75
2018-03-15T06:34:39.844Z,989.7
2018-03-15T06:35:39.811Z,989.71
2018-03-15T06:36:39.781Z,989.67
2018-03-15T06:37:39.750Z,989.68
2018-03-15T06:38:39.719Z,989.71
2018-03-15T06:39:39.686Z,989.63
2018-03-15T06:40:39.654Z,989.6
2018-03-15T06:41:39.624Z,989.59
2018-03-15T06:42:39.592Z,989.54
2018-03-15T06:43:39.560Z,989.47
2018-03-15T06:44:39.529Z,989.49
2018-03-15T06:45:39.497Z,989.45
2018-03-15T06:46:39.466Z,989.44
2018-03-15T06:47:39.434Z,989.41
2018-03-15T06:48:39.404Z,989.43
2018-03-15T06:49:39.372Z,989.41
2018-03-15T06:50:39.344Z,989.46
2018-03-15T06:51:39.323Z,989.46
2018-03-15T06:52:39.279Z,989.46
2018-03-15T06:53:39.248Z,989.48
2018-03-15T06:54:39.217Z,989.46
2018-03-15T06:55:39.186Z,989.49
2018-03-15T06:56:39.155Z,989.44
2018-03-15T06:57:39.128Z,989.46
2018-03-15T06:58:39.094Z,989.42
2018-03-15T06:59:39.063Z,989.44
2018-03-15T07:00:39.052Z,989.41
2018-03-15T07:01:39.000Z,989.43
2018-03-15T07:02:38.969Z,989.4
2018-03-15T07:03:39.019Z,989.47
2018-03-15T07:04:39.029Z,989.47
2018-03-15T07:05:39.338Z,989.43
2018-03-15T07:06:39.494Z,989.44
2018-03-15T07:07:39.139Z,989.41
2018-03-15T07:08:39.152Z,989.44
2018-03-15T07:09:39.156Z,989.43
2018-03-15T07:10:39.221Z,989.45
2018-03-15T07:11:38.740Z,989.45
2018-03-15T07:12:38.664Z,989.47
2018-03-15T07:13:38.634Z,989.43
2018-03-15T07:14:38.604Z,989.44
2018-03-15T07:15:38.572Z,989.49
2018-03-15T07:16:38.570Z,989.57
2018-03-15T07:17:38.514Z,989.51
2018-03-15T07:18:38.484Z,989.57
2018-03-15T07:19:38.453Z,989.57
2018-03-15T07:20:38.423Z,989.58
2018-03-15T07:21:38.396Z,989.64
2018-03-15T07:22:38.367Z,989.6
2018-03-15T07:23:38.333Z,989.61
2018-03-15T07:24:38.303Z,989.71
2018-03-15T07:25:38.273Z,989.69
2018-03-15T07:26:38.252Z,989.65
2018-03-15T07:27:38.216Z,989.67
2018-03-15T07:28:38.296Z,989.68
2018-03-15T07:29:38.412Z,989.66
2018-03-15T07:30:38.144Z,989.64
2018-03-15T07:31:38.092Z,989.62
2018-03-15T07:32:38.065Z,989.65
2018-03-15T07:33:38.033Z,989.64
2018-03-15T07:34:38.003Z,989.65
2018-03-15T07:35:37.980Z,989.62
2018-03-15T07:36:37.944Z,989.64
2018-03-15T07:37:37.914Z,989.67
2018-03-15T07:38:37.885Z,989.61
2018-03-15T07:39:37.855Z,989.59
2018-03-15T07:40:37.825Z,989.65
2018-03-15T07:41:37.794Z,989.62
2018-03-15T07:42:37.766Z,989.59
2018-03-15T07:43:37.738Z,989.61
2018-03-15T07:44:37.707Z,989.58
2018-03-15T07:45:37.675Z,989.56
2018-03-15T07:46:37.648Z,989.58
2018-03-15T07:47:37.619Z,989.59
2018-03-15T07:48:37.588Z,989.62
2018-03-15T07:49:37.760Z,989.65
2018-03-15T07:50:37.530Z,989.65
2018-03-15T07:51:37.500Z,989.7
2018-03-15T07:52:37.470Z,989.64
2018-03-15T07:53:37.441Z,989.74
2018-03-15T07:54:37.412Z,989.71
2018-03-15T07:55:37.381Z,989.71
2018-03-15T07:56:37.354Z,989.69
2018-03-15T07:57:37.325Z,989.69
2018-03-15T07:58:37.295Z,989.67
2018-03-15T07:59:37.266Z,989.67
2018-03-15T08:00:37.236Z,989.63
2018-03-15T08:01:37.207Z,989.58
2018-03-15T08:02:37.179Z,989.59
2018-03-15T08:03:37.148Z,989.55
2018-03-15T08:04:37.120Z,989.52
2018-03-15T08:05:37.094Z,989.5
2018-03-15T08:06:37.061Z,989.49
2018-03-15T08:07:37.031Z,989.41
2018-03-15T08:08:37.003Z,989.42
2018-03-15T08:09:36.976Z,989.36
2018-03-15T08:10:36.946Z,989.34
2018-03-15T08:11:36.916Z,989.34
2018-03-15T08:12:36.889Z,989.32
2018-03-15T08:13:36.860Z,989.29
2018-03-15T08:14:36.872Z,989.3
2018-03-15T08:15:36.801Z,989.24
2018-03-15T08:16:36.820Z,989.28
2018-03-15T08:17:36.747Z,989.25
2018-03-15T08:18:36.714Z,989.26
2018-03-15T08:19:36.688Z,989.23
2018-03-15T08:20:36.721Z,989.26
2018-03-15T08:21:36.627Z,989.26
2018-03-15T08:22:36.600Z,989.27
2018-03-15T08:23:36.570Z,989.22
2018-03-15T08:24:36.546Z,989.25
2018-03-15T08:25:36.514Z,989.24
2018-03-15T08:26:36.485Z,989.21
2018-03-15T08:27:36.457Z,989.21
2018-03-15T08:28:36.426Z,989.21
2018-03-15T08:29:36.399Z,989.15
2018-03-15T08:30:36.371Z,989.1
2018-03-15T08:31:36.345Z,989.16
2018-03-15T08:32:36.313Z,989.17
2018-03-15T08:33:36.285Z,989.17
2018-03-15T08:34:36.261Z,989.09
2018-03-15T08:35:36.229Z,989.06
2018-03-15T08:36:36.201Z,989.08
2018-03-15T08:37:36.172Z,989.03
2018-03-15T08:38:36.144Z,989.03
2018-03-15T08:39:36.158Z,989.05
2018-03-15T08:40:36.137Z,989.03
2018-03-15T08:41:36.058Z,989.06
2018-03-15T08:42:36.031Z,989.01
2018-03-15T08:43:36.001Z,989.01
2018-03-15T08:44:35.974Z,988.98
2018-03-15T08:45:35.945Z,988.89
2018-03-15T08:46:35.918Z,988.94
2018-03-15T08:47:35.887Z,988.91
2018-03-15T08:48:35.861Z,988.92
2018-03-15T08:49:35.834Z,988.92
2018-03-15T08:50:35.805Z,988.88
2018-03-15T08:51:35.834Z,988.89
2018-03-15T08:52:35.750Z,988.85
2018-03-15T08:53:35.721Z,988.82
2018-03-15T08:54:35.693Z,988.78
2018-03-15T08:55:35.669Z,988.81
2018-03-15T08:56:35.666Z,988.76
2018-03-15T08:57:35.620Z,988.73
2018-03-15T08:58:35.584Z,988.71
2018-03-15T08:59:35.556Z,988.74
2018-03-15T09:00:35.530Z,988.74
2018-03-15T09:01:35.500Z,988.69
2018-03-15T09:02:35.475Z,988.71
2018-03-15T09:03:35.448Z,988.71
2018-03-15T09:04:35.752Z,988.7
2018-03-15T09:05:35.393Z,988.72
2018-03-15T09:06:35.365Z,988.65
2018-03-15T09:07:35.339Z,988.6
2018-03-15T09:08:35.312Z,988.64
2018-03-15T09:09:35.285Z,988.51
2018-03-15T09:10:35.258Z,988.56
2018-03-15T09:11:35.233Z,988.63
2018-03-15T09:12:35.207Z,988.61
2018-03-15T09:13:35.181Z,988.58
2018-03-15T09:14:35.151Z,988.56
2018-03-15T09:15:35.124Z,988.48
2018-03-15T09:16:35.098Z,988.46
2018-03-15T09:17:35.072Z,988.53
2018-03-15T09:18:35.048Z,988.49
2018-03-15T09:19:35.019Z,988.5
2018-03-15T09:20:34.992Z,988.48
2018-03-15T09:21:35.005Z,988.39
2018-03-15T09:22:34.940Z,988.42
2018-03-15T09:23:34.914Z,988.33
2018-03-15T09:24:34.889Z,988.39
2018-03-15T09:25:34.864Z,988.35
2018-03-15T09:26:34.837Z,988.33
2018-03-15T09:27:34.811Z,988.32
2018-03-15T09:28:34.787Z,988.03
2018-03-15T09:29:34.763Z,988.24
2018-03-15T09:30:34.740Z,988.15
2018-03-15T09:31:34.710Z,988.14
2018-03-15T09:32:34.686Z,988.14
2018-03-15T09:33:34.660Z,988.15
2018-03-15T09:34:34.749Z,988.2
2018-03-15T09:35:34.610Z,988.18
2018-03-15T09:36:34.855Z,988.2
2018-03-15T09:37:34.561Z,988.21
2018-03-15T09:38:34.535Z,988.1
2018-03-15T09:39:34.511Z,988.11
2018-03-15T09:40:34.496Z,988.08
2018-03-15T09:41:34.460Z,988.09
2018-03-15T09:42:34.436Z,988.01
2018-03-15T09:43:34.411Z,987.95
2018-03-15T09:44:34.388Z,988.01
2018-03-15T09:45:34.362Z,987.9
2018-03-15T09:46:34.353Z,987.95
2018-03-15T09:47:34.321Z,987.95
2018-03-15T09:48:34.290Z,988.04
2018-03-15T09:49:34.266Z,987.97
2018-03-15T09:50:34.242Z,987.92
2018-03-15T09:51:34.216Z,987.86
2018-03-15T09:52:34.193Z,987.91
2018-03-15T09:53:34.168Z,987.93
2018-03-15T09:54:34.145Z,987.92
2018-03-15T09:55:34.121Z,987.81
2018-03-15T09:56:34.096Z,987.92
2018-03-15T09:57:34.073Z,987.9
2018-03-15T09:58:34.050Z,987.89
2018-03-15T09:59:34.028Z,987.86
2018-03-15T10:00:34.024Z,987.85
2018-03-15T10:01:33.981Z,987.83
2018-03-15T10:02:33.961Z,987.87
2018-03-15T10:03:33.932Z,987.89
2018-03-15T10:04:33.906Z,987.85
2018-03-15T10:05:33.884Z,987.81
2018-03-15T10:06:33.862Z,987.82
2018-03-15T10:07:33.837Z,987.8
2018-03-15T10:08:33.814Z,987.82
2018-03-15T10:09:33.791Z,987.8
2018-03-15T10:10:33.768Z,987.77
2018-03-15T10:11:33.744Z,987.73
2018-03-15T10:12:33.726Z,987.66
2018-03-15T10:13:33.698Z,987.68
2018-03-15T10:14:33.675Z,987.7
2018-03-15T10:15:33.654Z,987.71
2018-03-15T10:16:33.629Z,987.66
2018-03-15T10:17:33.607Z,987.64
2018-03-15T10:18:33.582Z,987.64
2018-03-15T10:19:33.561Z,987.64
2018-03-15T10:20:33.900Z,987.64
2018-03-15T10:21:33.773Z,987.56
2018-03-15T10:22:33.490Z,987.56
2018-03-15T10:23:33.468Z,987.5
2018-03-15T10:24:33.446Z,987.52
2018-03-15T10:25:33.428Z,987.47
2018-03-15T10:26:33.402Z,987.47
2018-03-15T10:27:33.389Z,987.5
2018-03-15T10:28:33.355Z,987.47
2018-03-15T10:29:33.337Z,987.42
2018-03-15T10:30:33.309Z,987.38
2018-03-15T10:31:33.288Z,987.35
2018-03-15T10:32:33.267Z,987.38
2018-03-15T10:33:33.242Z,987.35
2018-03-15T10:34:33.222Z,987.37
2018-03-15T10:35:33.200Z,987.32
2018-03-15T10:36:33.177Z,987.27
2018-03-15T10:37:33.155Z,987.23
2018-03-15T10:38:33.160Z,987.25
2018-03-15T10:39:33.111Z,987.32
2018-03-15T10:40:33.340Z,987.21
2018-03-15T10:41:33.066Z,987.26
2018-03-15T10:42:33.045Z,987.29
2018-03-15T10:43:33.021Z,987.29
2018-03-15T10:44:33.000Z,987.28
2018-03-15T10:45:32.979Z,987.26
2018-03-15T10:46:32.955Z,987.31
2018-03-15T10:47:32.934Z,987.3
2018-03-15T10:48:32.912Z,987.34
2018-03-15T10:49:32.891Z,987.33
2018-03-15T10:50:32.867Z,987.33
2018-03-15T10:51:32.846Z,987.36
2018-03-15T10:52:32.824Z,987.36
2018-03-15T10:53:32.852Z,987.28
2018-03-15T10:54:32.780Z,987.27
2018-03-15T10:55:32.757Z,987.25
2018-03-15T10:56:32.737Z,987.23
2018-03-15T10:57:32.714Z,987.21
2018-03-15T10:58:32.693Z,987.23
2018-03-15T10:59:32.672Z,987.23
2018-03-15T11:00:32.650Z,987.22
2018-03-15T11:01:32.628Z,987.22
2018-03-15T11:02:32.607Z,987.24
2018-03-15T11:03:32.586Z,987.21
2018-03-15T11:04:32.563Z,987.18
2018-03-15T11:05:32.549Z,987.17
2018-03-15T11:06:32.521Z,987.11
2018-03-15T11:07:32.500Z,987.12
2018-03-15T11:08:32.479Z,987.05
2018-03-15T11:09:32.456Z,987.01
2018-03-15T11:10:32.434Z,987.08
2018-03-15T11:11:32.415Z,987.08
2018-03-15T11:12:32.393Z,987.09
2018-03-15T11:13:32.390Z,987.12
2018-03-15T11:14:32.772Z,987.09
2018-03-15T11:15:32.328Z,987.05
2018-03-15T11:16:32.359Z,987.05
2018-03-15T11:17:32.286Z,987.05
2018-03-15T11:18:32.265Z,987.13
2018-03-15T11:19:32.244Z,987.09
2018-03-15T11:20:32.222Z,987.07
2018-03-15T11:21:32.199Z,987.11
2018-03-15T11:22:32.180Z,987.07
2018-03-15T11:23:32.197Z,986.99
2018-03-15T11:24:32.290Z,987.03
2018-03-15T11:25:32.116Z,986.93
2018-03-15T11:26:32.096Z,986.87
2018-03-15T11:27:32.074Z,986.88
2018-03-15T11:28:32.053Z,986.84
2018-03-15T11:29:32.033Z,986.88
2018-03-15T11:30:32.130Z,986.76
2018-03-15T11:31:31.990Z,986.83
2018-03-15T11:32:31.971Z,986.83
2018-03-15T11:33:31.952Z,986.8
2018-03-15T11:34:31.928Z,986.78
2018-03-15T11:35:31.904Z,986.75
2018-03-15T11:36:31.885Z,986.81
2018-03-15T11:37:31.864Z,986.72
2018-03-15T11:38:31.856Z,986.68
2018-03-15T11:39:31.822Z,986.72
2018-03-15T11:40:31.801Z,986.64
2018-03-15T11:41:31.781Z,986.76
2018-03-15T11:42:31.762Z,986.72
2018-03-15T11:43:31.739Z,986.72
2018-03-15T11:44:31.722Z,986.83
2018-03-15T11:45:31.698Z,986.77
2018-03-15T11:46:31.676Z,986.75
2018-03-15T11:47:31.657Z,986.74
2018-03-15T11:48:31.636Z,986.73
2018-03-15T11:49:31.614Z,986.81
2018-03-15T11:50:31.597Z,986.76
2018-03-15T11:51:31.575Z,986.83
2018-03-15T11:52:31.554Z,986.82
2018-03-15T11:53:31.534Z,986.78
2018-03-15T11:54:31.514Z,986.84
2018-03-15T11:55:31.492Z,986.73
2018-03-15T11:56:31.473Z,986.74
2018-03-15T11:57:31.452Z,986.71
2018-03-15T11:58:31.432Z,986.75
2018-03-15T11:59:31.412Z,986.73
2018-03-15T12:00:31.391Z,986.79
2018-03-15T12:01:31.371Z,986.83
2018-03-15T12:02:31.351Z,986.68
2018-03-15T12:03:31.331Z,986.79
2018-03-15T12:04:31.310Z,986.73
2018-03-15T12:05:31.292Z,986.74
2018-03-15T12:06:31.269Z,986.76
2018-03-15T12:07:31.251Z,986.65
2018-03-15T12:08:31.229Z,986.7
2018-03-15T12:09:31.209Z,986.64
2018-03-15T12:10:31.194Z,986.58
2018-03-15T12:11:31.168Z,986.6
2018-03-15T12:12:31.149Z,986.61
2018-03-15T12:13:31.129Z,986.58
2018-03-15T12:14:31.111Z,986.59
2018-03-15T12:15:31.090Z,986.59
2018-03-15T12:16:31.070Z,986.55
2018-03-15T12:17:31.051Z,986.53
2018-03-15T12:18:31.030Z,986.58
2018-03-15T12:19:31.014Z,986.49
2018-03-15T12:20:30.992Z,986.55
2018-03-15T12:21:30.974Z,986.44
2018-03-15T12:22:30.953Z,986.48
2018-03-15T12:23:30.932Z,986.47
2018-03-15T12:24:30.913Z,986.45
2018-03-15T12:25:30.893Z,986.39
2018-03-15T12:26:30.873Z,986.37
2018-03-15T12:27:30.854Z,986.43
2018-03-15T12:28:30.835Z,986.4
2018-03-15T12:29:30.813Z,986.28
2018-03-15T12:30:30.796Z,986.31